St. Elmo — WDG2405 — position and weather

sailwx.info

Track history (hours):
 
Tides and Currents Weather Stations Pressure Air Temp Water Temp Dewpoint Dewpoint Depression Visibility Wind Speed Wind Dir Waves Ship Positions

St. Elmo

Owner: Marquette Transportation Company Gulf-Inland, LLC, Jefferson, LA. More information available from US FCC via Universal Licensing System and Coast Guard Vessel Documentation Center.

Last reported at 2016-Jul-29 11:16 UTC. Time now 2016-Jul-29 16:00 UTC.
Position N 29°45' W 095°06'.

; draft 3.2 m.

MMSI: 367515330.

Date/timePositionNaut miles runAvg speedWind from/ knotsBaromVisibWave heightAir tempDewpointWater temp
2016-Jul-29 11:16N 29°45' W 095°06'2 0.1
2016-Jul-28 10:13N 29°46' W 095°05'0 0.2
2016-Jul-28 07:32N 29°46' W 095°05'3 0.5
2016-Jul-28 00:33N 29°44' W 095°08'3 0.9
2016-Jul-27 20:33N 29°46' W 095°04'4 4.0
2016-Jul-27 19:32N 29°43' W 095°01'5 4.6
2016-Jul-27 18:33N 29°39' W 094°58'3 3.1
2016-Jul-27 17:32N 29°37' W 095°01'1 0.6
2016-Jul-27 16:32N 29°37' W 095°01'0 0.0
2016-Jul-27 15:33N 29°37' W 095°01'0 0.0
2016-Jul-27 14:34N 29°37' W 095°01'0 0.0
2016-Jul-27 13:33N 29°37' W 095°01'0 0.0
2016-Jul-27 12:33N 29°37' W 095°01'0 0.0
2016-Jul-27 11:33N 29°37' W 095°01'0 0.0
2016-Jul-27 10:33N 29°37' W 095°01'0 0.0
2016-Jul-27 09:33N 29°37' W 095°01'0 0.0
2016-Jul-27 08:33N 29°37' W 095°01'0 0.0
2016-Jul-27 06:34N 29°37' W 095°01'0 0.0
2016-Jul-27 05:33N 29°37' W 095°01'0 0.0
2016-Jul-27 04:33N 29°37' W 095°01'0 0.0
2016-Jul-27 03:34N 29°37' W 095°01'0 0.0
2016-Jul-27 02:34N 29°37' W 095°02'0 0.0
2016-Jul-27 01:32N 29°37' W 095°02'1 1.0
2016-Jul-27 00:33N 29°37' W 095°00'3 2.5
2016-Jul-26 23:33N 29°38' W 094°58'4 4.5
2016-Jul-26 22:34N 29°42' W 094°60'4 4.0
2016-Jul-26 21:33N 29°44' W 095°04'1 0.1
2016-Jul-26 03:06N 29°45' W 095°04'3 5.1
2016-Jul-26 02:33N 29°44' W 095°01'5 4.9
2016-Jul-26 01:33N 29°40' W 094°58'6 5.5
2016-Jul-26 00:33N 29°35' W 094°56'1 0.0
2016-Jul-25 00:22N 29°34' W 094°55'6 6.6
2016-Jul-24 23:32N 29°39' W 094°58'6 6.0
2016-Jul-24 22:29N 29°44' W 095°03'3 0.1
2016-Jul-23 14:21N 29°46' W 095°05'1 0.0
2016-Jul-22 19:33N 29°46' W 095°05'5 4.8
2016-Jul-22 18:33N 29°42' W 095°01'5 5.3
2016-Jul-22 17:33N 29°38' W 094°58'4 3.5
2016-Jul-22 16:33N 29°37' W 095°01'0 0.0
2016-Jul-22 15:27N 29°37' W 095°02'0 0.0
2016-Jul-22 14:33N 29°37' W 095°02'0 0.0
2016-Jul-22 13:32N 29°37' W 095°02'0 0.0
2016-Jul-22 12:31N 29°37' W 095°02'0 0.0
2016-Jul-22 11:30N 29°37' W 095°02'0 0.0
2016-Jul-22 10:34N 29°37' W 095°02'0 0.0
2016-Jul-22 09:30N 29°37' W 095°02'0 0.0
2016-Jul-22 08:34N 29°37' W 095°02'0 0.0
2016-Jul-22 07:34N 29°37' W 095°02'0 0.0
2016-Jul-22 04:32N 29°37' W 095°02'0 0.0
2016-Jul-22 03:33N 29°37' W 095°01'0 0.0
2016-Jul-22 02:33N 29°37' W 095°01'0 0.0
2016-Jul-22 01:33N 29°37' W 095°01'0 0.0
2016-Jul-22 00:34N 29°37' W 095°01'1 1.1
2016-Jul-21 23:32N 29°37' W 095°00'5 4.6
2016-Jul-21 22:33N 29°35' W 094°56'2 0.1
2016-Jul-20 13:32N 29°36' W 094°57'6 6.1
2016-Jul-20 12:33N 29°42' W 094°60'6 5.5
2016-Jul-20 11:32N 29°46' W 095°04'  
Track history (hours):
 
Tides and Currents Weather Stations Pressure Air Temp Water Temp Dewpoint Dewpoint Depression Visibility Wind Speed Wind Dir Waves Ship Positions

St. Elmo

Owner: Marquette Transportation Company Gulf-Inland, LLC, Jefferson, LA. More information available from US FCC via Universal Licensing System and Coast Guard Vessel Documentation Center.

Last reported at 2016-Jul-29 11:16 UTC. Time now 2016-Jul-29 16:00 UTC.
Position N 29°45' W 095°06'.

; draft 3.2 m.

MMSI: 367515330.

Date/timePositionNaut miles runAvg speedWind from/ knotsBaromVisibWave heightAir tempDewpointWater temp
2016-Jul-29 11:16N 29°45' W 095°06'2 0.1
2016-Jul-28 10:13N 29°46' W 095°05'0 0.2
2016-Jul-28 07:32N 29°46' W 095°05'3 0.5
2016-Jul-28 00:33N 29°44' W 095°08'3 0.9
2016-Jul-27 20:33N 29°46' W 095°04'4 4.0
2016-Jul-27 19:32N 29°43' W 095°01'5 4.6
2016-Jul-27 18:33N 29°39' W 094°58'3 3.1
2016-Jul-27 17:32N 29°37' W 095°01'1 0.6
2016-Jul-27 16:32N 29°37' W 095°01'0 0.0
2016-Jul-27 15:33N 29°37' W 095°01'0 0.0
2016-Jul-27 14:34N 29°37' W 095°01'0 0.0
2016-Jul-27 13:33N 29°37' W 095°01'0 0.0
2016-Jul-27 12:33N 29°37' W 095°01'0 0.0
2016-Jul-27 11:33N 29°37' W 095°01'0 0.0
2016-Jul-27 10:33N 29°37' W 095°01'0 0.0
2016-Jul-27 09:33N 29°37' W 095°01'0 0.0
2016-Jul-27 08:33N 29°37' W 095°01'0 0.0
2016-Jul-27 06:34N 29°37' W 095°01'0 0.0
2016-Jul-27 05:33N 29°37' W 095°01'0 0.0
2016-Jul-27 04:33N 29°37' W 095°01'0 0.0
2016-Jul-27 03:34N 29°37' W 095°01'0 0.0
2016-Jul-27 02:34N 29°37' W 095°02'0 0.0
2016-Jul-27 01:32N 29°37' W 095°02'1 1.0
2016-Jul-27 00:33N 29°37' W 095°00'3 2.5
2016-Jul-26 23:33N 29°38' W 094°58'4 4.5
2016-Jul-26 22:34N 29°42' W 094°60'4 4.0
2016-Jul-26 21:33N 29°44' W 095°04'1 0.1
2016-Jul-26 03:06N 29°45' W 095°04'3 5.1
2016-Jul-26 02:33N 29°44' W 095°01'5 4.9
2016-Jul-26 01:33N 29°40' W 094°58'6 5.5
2016-Jul-26 00:33N 29°35' W 094°56'1 0.0
2016-Jul-25 00:22N 29°34' W 094°55'6 6.6
2016-Jul-24 23:32N 29°39' W 094°58'6 6.0
2016-Jul-24 22:29N 29°44' W 095°03'3 0.1
2016-Jul-23 14:21N 29°46' W 095°05'1 0.0
2016-Jul-22 19:33N 29°46' W 095°05'5 4.8
2016-Jul-22 18:33N 29°42' W 095°01'5 5.3
2016-Jul-22 17:33N 29°38' W 094°58'4 3.5
2016-Jul-22 16:33N 29°37' W 095°01'0 0.0
2016-Jul-22 15:27N 29°37' W 095°02'0 0.0
2016-Jul-22 14:33N 29°37' W 095°02'0 0.0
2016-Jul-22 13:32N 29°37' W 095°02'0 0.0
2016-Jul-22 12:31N 29°37' W 095°02'0 0.0
2016-Jul-22 11:30N 29°37' W 095°02'0 0.0
2016-Jul-22 10:34N 29°37' W 095°02'0 0.0
2016-Jul-22 09:30N 29°37' W 095°02'0 0.0
2016-Jul-22 08:34N 29°37' W 095°02'0 0.0
2016-Jul-22 07:34N 29°37' W 095°02'0 0.0
2016-Jul-22 04:32N 29°37' W 095°02'0 0.0
2016-Jul-22 03:33N 29°37' W 095°01'0 0.0
2016-Jul-22 02:33N 29°37' W 095°01'0 0.0
2016-Jul-22 01:33N 29°37' W 095°01'0 0.0
2016-Jul-22 00:34N 29°37' W 095°01'1 1.1
2016-Jul-21 23:32N 29°37' W 095°00'5 4.6
2016-Jul-21 22:33N 29°35' W 094°56'2 0.1
2016-Jul-20 13:32N 29°36' W 094°57'6 6.1
2016-Jul-20 12:33N 29°42' W 094°60'6 5.5
2016-Jul-20 11:32N 29°46' W 095°04'  

Dump ship's entire track history